Time;durP1;ratioP1;P1;durP2;ratioP2;P2;SDS_P1;SDS_P2;PMS_P1;PMS_P2;Temp;Humidity;BMP_temperature;BMP_pressure;BME280_temperature;BME280_humidity;BME280_pressure;Samples;Min_cycle;Max_cycle;Signal;HPM_P1;HPM_P2
2021/08/04 00:01:17;;;;;;;6.65;3.58;;;;;;;16.61;67.04;99114.38;5054346;28;20040;-75
2021/08/04 00:03:43;;;;;;;7.75;3.63;;;;;;;16.70;67.22;99127.38;5058107;28;20048;-75
2021/08/04 00:06:09;;;;;;;6.30;3.22;;;;;;;16.71;67.47;99131.69;5038783;28;20434;-75
2021/08/04 00:08:35;;;;;;;6.68;2.88;;;;;;;16.70;67.39;99124.69;5054095;28;20048;-75
2021/08/04 00:11:01;;;;;;;6.93;3.50;;;;;;;16.75;67.57;99142.84;5053912;28;20162;-75
2021/08/04 00:13:27;;;;;;;14.07;3.83;;;;;;;16.63;67.32;99120.38;5037984;28;20036;-75
2021/08/04 00:15:53;;;;;;;7.53;3.90;;;;;;;16.77;67.54;99140.78;5022843;28;20044;-75
2021/08/04 00:18:19;;;;;;;8.48;3.50;;;;;;;16.74;67.35;99128.59;5037985;28;20055;-75
2021/08/04 00:20:45;;;;;;;7.53;3.30;;;;;;;16.77;67.38;99130.84;5038121;28;20048;-76
2021/08/04 00:23:11;;;;;;;9.93;3.60;;;;;;;16.79;67.31;99134.16;5020706;28;20164;-75
2021/08/04 00:25:37;;;;;;;7.63;3.55;;;;;;;16.79;67.45;99131.47;5054180;28;20218;-75
2021/08/04 00:28:06;;;;;;;10.13;3.38;;;;;;;16.77;67.10;99133.53;5070919;28;20060;-75
2021/08/04 00:30:32;;;;;;;5.93;3.20;;;;;;;16.78;67.26;99129.00;5054535;28;20472;-75
2021/08/04 00:32:57;;;;;;;8.93;3.20;;;;;;;16.66;67.32;99111.91;5055056;28;20048;-75
2021/08/04 00:35:24;;;;;;;7.10;3.00;;;;;;;16.78;67.48;99135.19;5056578;28;20123;-75
2021/08/04 00:37:51;;;;;;;10.52;3.30;;;;;;;16.78;67.40;99142.41;5057001;28;20052;-75
2021/08/04 00:40:18;;;;;;;7.45;3.13;;;;;;;16.67;67.45;99122.44;5074934;28;20051;-75
2021/08/04 00:42:47;;;;;;;11.73;3.60;;;;;;;16.76;67.77;99139.09;5073928;28;20489;-76
2021/08/04 00:45:14;;;;;;;7.68;3.17;;;;;;;16.75;67.86;99138.31;5040589;28;20501;-75
2021/08/04 00:47:41;;;;;;;7.43;3.03;;;;;;;16.71;67.66;99137.06;5055797;28;20207;-75
2021/08/04 00:50:09;;;;;;;7.53;3.70;;;;;;;16.71;67.77;99133.56;5073487;28;20045;-75
2021/08/04 00:52:35;;;;;;;12.80;3.58;;;;;;;16.72;67.64;99141.41;5055905;28;20063;-75
2021/08/04 00:55:01;;;;;;;11.52;3.50;;;;;;;16.71;67.85;99142.41;5022673;28;20440;-75
2021/08/04 00:57:27;;;;;;;10.20;3.70;;;;;;;16.71;68.10;99142.41;5055681;28;20040;-76
2021/08/04 01:00:04;;;;;;;8.45;3.30;;;;;;;16.69;67.80;99144.50;5057060;28;20040;-76
2021/08/04 01:03:04;;;;;;;8.60;3.33;;;;;;;16.66;68.20;99144.09;5055342;28;20076;-75
2021/08/04 01:05:57;;;;;;;6.47;3.25;;;;;;;16.61;68.35;99143.88;5038996;28;20524;-74
2021/08/04 01:08:34;;;;;;;7.60;3.53;;;;;;;16.50;68.46;99131.09;5011055;28;20040;-74
2021/08/04 01:11:03;;;;;;;13.63;3.42;;;;;;;16.55;68.42;99145.53;5073304;28;20044;-74
2021/08/04 01:13:37;;;;;;;8.55;3.78;;;;;;;16.41;68.64;99127.78;5055144;28;20071;-74
2021/08/04 01:16:10;;;;;;;9.05;3.80;;;;;;;16.51;68.68;99154.22;5055476;28;20132;-76
2021/08/04 01:18:54;;;;;;;9.88;3.53;;;;;;;16.47;68.96;99159.16;5071927;28;20040;-76
2021/08/04 01:21:26;;;;;;;9.05;3.17;;;;;;;16.43;68.97;99154.38;5055468;28;20048;-76
2021/08/04 01:24:05;;;;;;;6.75;3.83;;;;;;;16.39;69.37;99167.38;5072877;28;20117;-77
2021/08/04 01:26:39;;;;;;;9.25;3.67;;;;;;;16.32;69.25;99155.00;5071858;28;20044;-75
2021/08/04 01:29:08;;;;;;;11.85;4.00;;;;;;;16.29;69.58;99158.94;5055110;28;20482;-75
2021/08/04 01:31:35;;;;;;;9.85;3.75;;;;;;;16.28;69.88;99164.50;5054917;28;20048;-76
2021/08/04 01:34:01;;;;;;;7.57;4.05;;;;;;;16.23;69.96;99153.56;5038439;28;20090;-75
2021/08/04 01:36:27;;;;;;;10.00;3.63;;;;;;;16.22;70.05;99171.47;5038295;28;20045;-75
2021/08/04 01:38:54;;;;;;;7.75;3.67;;;;;;;16.18;70.07;99167.56;5054850;28;20044;-74
2021/08/04 01:41:20;;;;;;;8.00;3.00;;;;;;;16.18;70.14;99170.25;5021843;28;20482;-75
2021/08/04 01:43:47;;;;;;;8.32;3.33;;;;;;;16.17;70.22;99176.66;5038379;28;20500;-75
2021/08/04 01:46:14;;;;;;;4.45;3.22;;;;;;;16.13;70.23;99169.22;5071333;28;20040;-76
2021/08/04 01:48:41;;;;;;;6.22;3.50;;;;;;;16.18;70.22;99169.41;5021597;28;21055;-76
2021/08/04 01:51:10;;;;;;;8.48;3.45;;;;;;;16.18;70.15;99186.34;5071259;28;20044;-76
2021/08/04 01:53:36;;;;;;;6.68;2.80;;;;;;;16.19;70.03;99179.94;5037957;28;20078;-76
2021/08/04 01:56:03;;;;;;;10.07;3.42;;;;;;;16.20;69.83;99183.44;5054524;28;20389;-75
2021/08/04 01:58:48;;;;;;;5.88;2.90;;;;;;;16.19;70.13;99171.91;5070563;28;20064;-75
2021/08/04 02:01:34;;;;;;;7.80;3.22;;;;;;;16.25;70.15;99187.16;5037788;28;20040;-76
2021/08/04 02:04:01;;;;;;;6.15;3.03;;;;;;;16.29;69.94;99188.41;5044573;28;20051;-76
2021/08/04 02:06:42;;;;;;;10.05;3.80;;;;;;;16.31;69.69;99186.31;5037591;28;20041;-76
2021/08/04 02:09:08;;;;;;;8.50;3.50;;;;;;;16.34;69.58;99191.31;5054376;28;20040;-76
2021/08/04 02:11:52;;;;;;;8.82;3.40;;;;;;;16.34;69.74;99190.47;5037507;28;20044;-76
2021/08/04 02:14:57;;;;;;;7.95;3.42;;;;;;;16.35;69.85;99192.13;5054304;28;20055;-76
2021/08/04 02:17:26;;;;;;;6.82;3.72;;;;;;;16.22;69.24;99176.03;5062308;28;20512;-76
2021/08/04 02:20:22;;;;;;;13.48;3.38;;;;;;;16.35;69.48;99192.13;5070847;28;20128;-76
2021/08/04 02:23:00;;;;;;;7.05;2.95;;;;;;;16.23;69.32;99181.19;5053826;28;20087;-75
2021/08/04 02:25:37;;;;;;;7.95;3.47;;;;;;;16.31;69.35;99190.88;5021460;28;20184;-74
2021/08/04 02:28:07;;;;;;;12.20;3.17;;;;;;;16.36;69.28;99194.59;5052851;28;20040;-75
2021/08/04 02:30:34;;;;;;;10.55;3.50;;;;;;;16.37;69.59;99206.13;5068651;28;20539;-75
2021/08/04 02:33:00;;;;;;;7.60;2.90;;;;;;;16.36;69.12;99199.16;5069003;28;20512;-75
2021/08/04 02:35:26;;;;;;;12.60;3.60;;;;;;;16.41;68.95;99210.88;5035860;28;20049;-76
2021/08/04 02:37:52;;;;;;;8.35;3.10;;;;;;;16.40;69.42;99213.78;5053242;28;20040;-75
2021/08/04 02:40:18;;;;;;;8.20;3.65;;;;;;;16.41;69.56;99215.41;5037053;28;20059;-76
2021/08/04 02:42:45;;;;;;;7.65;3.40;;;;;;;16.43;69.04;99218.72;5053660;28;20143;-75
2021/08/04 02:45:13;;;;;;;9.68;3.38;;;;;;;16.44;68.95;99218.53;5070886;28;20048;-75
2021/08/04 02:47:39;;;;;;;10.32;3.60;;;;;;;16.45;68.72;99214.03;5070348;28;20135;-76
2021/08/04 02:50:07;;;;;;;9.35;3.38;;;;;;;16.47;68.70;99228.84;5036601;28;20080;-76
2021/08/04 02:52:33;;;;;;;8.85;3.42;;;;;;;16.51;68.81;99230.09;5051927;28;20033;-75
2021/08/04 02:55:00;;;;;;;7.22;3.17;;;;;;;16.53;68.63;99237.91;5067689;28;20048;-76
2021/08/04 02:57:26;;;;;;;8.80;3.08;;;;;;;16.49;68.55;99226.81;5034421;28;20385;-76
2021/08/04 02:59:52;;;;;;;7.05;3.45;;;;;;;16.42;68.65;99212.53;5034876;28;20049;-75
2021/08/04 03:02:18;;;;;;;12.07;3.28;;;;;;;16.51;68.62;99222.03;5034376;28;20526;-75
2021/08/04 03:04:44;;;;;;;5.07;3.25;;;;;;;16.54;68.69;99226.19;5050684;28;20406;-76
2021/08/04 03:07:10;;;;;;;9.07;3.90;;;;;;;16.56;68.58;99232.16;5050907;28;20501;-75
2021/08/04 03:09:36;;;;;;;11.48;3.65;;;;;;;16.56;68.36;99237.50;5052514;28;20070;-76
2021/08/04 03:12:02;;;;;;;8.27;3.03;;;;;;;16.57;68.52;99225.78;5069883;28;20041;-76
2021/08/04 03:14:28;;;;;;;9.88;3.63;;;;;;;16.65;68.61;99230.94;5070859;28;20047;-75
2021/08/04 03:16:54;;;;;;;8.05;3.53;;;;;;;16.77;68.17;99238.13;5052691;28;20059;-82
2021/08/04 03:19:21;;;;;;;7.68;3.55;;;;;;;16.93;67.67;99241.44;5035612;28;20048;-80
2021/08/04 03:21:46;;;;;;;6.88;2.97;;;;;;;17.10;67.15;99237.28;5051797;28;20455;-83
2021/08/04 03:24:12;;;;;;;8.60;3.38;;;;;;;17.31;66.39;99250.44;5034907;28;20652;-82
2021/08/04 03:26:38;;;;;;;8.68;3.30;;;;;;;17.49;65.80;99239.88;5029560;28;20033;-80
2021/08/04 03:29:04;;;;;;;11.30;3.55;;;;;;;17.56;65.12;99238.03;5032524;28;20084;-82
2021/08/04 03:31:30;;;;;;;8.27;3.28;;;;;;;17.81;64.36;99255.06;5068635;28;20040;-84
2021/08/04 03:33:56;;;;;;;8.02;3.30;;;;;;;17.94;64.16;99245.06;5036312;28;20496;-81
2021/08/04 03:36:37;;;;;;;9.52;3.90;;;;;;;18.09;63.66;99261.75;5038798;28;20461;-82
2021/08/04 03:39:16;;;;;;;9.48;4.22;;;;;;;18.22;64.04;99268.91;5054286;28;20049;-83
2021/08/04 03:41:45;;;;;;;11.35;4.03;;;;;;;18.29;63.64;99258.94;5053461;28;20124;-83
2021/08/04 03:44:11;;;;;;;11.55;4.80;;;;;;;18.37;63.05;99267.59;5052994;28;20135;-81
2021/08/04 03:47:01;;;;;;;11.95;4.05;;;;;;;18.42;62.97;99261.56;5036087;28;20066;-81
2021/08/04 03:50:08;;;;;;;11.50;4.38;;;;;;;18.47;63.31;99272.50;5053536;28;20041;-81
2021/08/04 03:52:34;;;;;;;8.18;4.00;;;;;;;18.50;63.77;99288.19;5054342;28;20897;-79
2021/08/04 03:55:06;;;;;;;10.85;4.68;;;;;;;18.53;63.92;99290.44;5083423;28;20423;-80
2021/08/04 03:57:32;;;;;;;13.20;4.50;;;;;;;18.55;63.82;99285.69;5055053;28;20067;-85
2021/08/04 04:00:08;;;;;;;9.05;4.63;;;;;;;18.57;63.89;99288.16;5073346;28;20055;-80
2021/08/04 04:02:38;;;;;;;11.05;4.35;;;;;;;18.55;64.06;99291.06;5072668;28;20093;-82
2021/08/04 04:05:07;;;;;;;10.77;3.90;;;;;;;18.53;64.76;99287.75;5088668;28;20044;-82
2021/08/04 04:07:36;;;;;;;8.68;4.15;;;;;;;18.51;64.56;99287.19;5056071;28;20048;-81
2021/08/04 04:10:23;;;;;;;11.38;4.72;;;;;;;18.51;64.63;99297.09;5088705;28;20130;-84
2021/08/04 04:13:13;;;;;;;9.07;4.20;;;;;;;18.41;64.72;99297.56;5034917;28;20067;-82
2021/08/04 04:15:52;;;;;;;12.05;3.85;;;;;;;18.50;64.83;99295.47;5054747;28;20134;-81
2021/08/04 04:18:23;;;;;;;6.38;3.78;;;;;;;18.60;64.54;99301.16;5050795;28;20844;-82
2021/08/04 04:21:06;;;;;;;8.25;4.18;;;;;;;18.67;64.12;99285.78;5052390;28;20072;-82
2021/08/04 04:23:59;;;;;;;9.60;3.85;;;;;;;18.80;63.07;99277.63;5067982;28;20060;-85
2021/08/04 04:26:25;;;;;;;9.32;3.95;;;;;;;19.01;62.82;99296.09;5051802;28;20055;-78
2021/08/04 04:28:51;;;;;;;13.80;4.20;;;;;;;19.27;62.43;99315.56;5034202;28;20102;-81
2021/08/04 04:31:29;;;;;;;13.32;3.60;;;;;;;19.25;61.72;99279.91;5050204;28;20139;-85
2021/08/04 04:34:00;;;;;;;9.77;3.70;;;;;;;19.43;61.42;99290.75;5053050;28;20052;-84
2021/08/04 04:36:42;;;;;;;8.40;3.42;;;;;;;19.73;60.56;99307.00;5040236;28;20133;-84
2021/08/04 04:39:11;;;;;;;9.65;3.25;;;;;;;19.88;59.47;99302.06;5073838;28;20060;-83
2021/08/04 04:41:37;;;;;;;9.07;3.03;;;;;;;20.05;58.81;99306.59;5051459;28;20040;-81
2021/08/04 04:44:11;;;;;;;7.70;3.03;;;;;;;20.17;58.29;99298.63;5066860;28;20059;-81
2021/08/04 04:46:47;;;;;;;8.80;3.00;;;;;;;20.36;57.45;99312.91;5092061;28;20071;-81
2021/08/04 04:49:14;;;;;;;7.00;3.10;;;;;;;20.43;57.74;99308.22;5075766;28;20044;-85
2021/08/04 04:51:41;;;;;;;6.35;2.47;;;;;;;20.47;57.10;99312.09;5075630;28;20063;-78
2021/08/04 04:54:11;;;;;;;6.05;3.38;;;;;;;20.80;56.73;99323.25;5075015;28;20492;-80
2021/08/04 04:56:39;;;;;;;7.35;3.30;;;;;;;21.15;55.46;99310.66;5087900;28;20048;-76
2021/08/04 04:59:05;;;;;;;9.57;2.72;;;;;;;21.42;54.36;99315.34;5073070;28;20105;-78
2021/08/04 05:01:37;;;;;;;8.07;2.75;;;;;;;21.51;53.86;99302.31;5074280;28;20450;-78
2021/08/04 05:04:03;;;;;;;9.43;3.13;;;;;;;22.00;53.26;99326.13;5093368;28;20052;-68
2021/08/04 05:06:30;;;;;;;9.00;3.20;;;;;;;22.08;52.70;99319.53;5091911;28;20040;-68
2021/08/04 05:08:56;;;;;;;6.57;2.78;;;;;;;22.09;52.29;99327.41;5092938;28;20044;-68
2021/08/04 05:11:22;;;;;;;12.82;2.70;;;;;;;22.06;51.84;99325.19;5090328;28;20089;-69
2021/08/04 05:13:48;;;;;;;13.68;2.88;;;;;;;22.07;52.33;99317.88;5091484;28;20044;-70
2021/08/04 05:16:14;;;;;;;7.15;3.42;;;;;;;22.09;52.41;99323.88;5091431;28;20051;-69
2021/08/04 05:18:40;;;;;;;14.50;3.10;;;;;;;22.08;52.44;99325.75;5089942;28;20523;-70
2021/08/04 05:21:06;;;;;;;12.00;3.40;;;;;;;22.09;52.40;99330.09;5057545;28;20044;-68
2021/08/04 05:23:32;;;;;;;18.73;3.58;;;;;;;22.04;52.17;99310.22;5090872;28;20059;-68
2021/08/04 05:25:58;;;;;;;6.97;2.83;;;;;;;22.20;51.67;99326.56;5057780;28;20102;-67
2021/08/04 05:28:23;;;;;;;11.27;2.88;;;;;;;22.15;51.50;99312.91;5090920;28;20050;-68
2021/08/04 05:30:49;;;;;;;10.45;2.90;;;;;;;22.16;50.83;99328.06;5073985;28;20044;-69
2021/08/04 05:33:15;;;;;;;11.98;2.42;;;;;;;22.17;50.51;99343.22;5073941;28;20059;-69
2021/08/04 05:35:42;;;;;;;10.90;2.47;;;;;;;22.12;50.30;99337.75;5074406;28;20040;-68
2021/08/04 05:38:08;;;;;;;8.70;2.58;;;;;;;22.02;50.21;99334.00;5040950;28;20522;-68
2021/08/04 05:40:34;;;;;;;13.40;2.60;;;;;;;21.91;49.85;99332.16;5057032;28;20138;-70
2021/08/04 05:43:00;;;;;;;9.73;2.17;;;;;;;21.85;49.57;99331.19;5057461;28;20093;-68
2021/08/04 05:45:25;;;;;;;4.85;1.85;;;;;;;21.70;49.47;99317.31;5057446;28;20133;-69
2021/08/04 05:47:51;;;;;;;5.93;1.70;;;;;;;21.77;49.42;99339.69;5065041;28;20051;-69
2021/08/04 05:50:17;;;;;;;8.57;2.22;;;;;;;21.78;49.63;99337.78;5073712;28;20423;-68
2021/08/04 05:52:43;;;;;;;7.63;2.42;;;;;;;21.79;50.13;99329.44;5073135;28;20040;-68
2021/08/04 05:55:09;;;;;;;8.60;2.38;;;;;;;21.84;49.95;99339.53;5073901;28;20407;-69
2021/08/04 05:57:35;;;;;;;6.93;2.20;;;;;;;21.82;49.09;99347.09;5062867;28;20071;-68
2021/08/04 06:00:03;;;;;;;9.13;2.10;;;;;;;21.74;48.74;99345.56;5088659;28;20094;-69
2021/08/04 06:02:44;;;;;;;5.15;2.10;;;;;;;21.77;49.16;99347.81;5146266;27;20385;-69
2021/08/04 06:05:10;;;;;;;5.68;1.90;;;;;;;21.83;49.38;99338.75;5057158;28;20031;-70
2021/08/04 06:07:37;;;;;;;9.38;2.20;;;;;;;21.92;49.36;99342.72;5090445;28;20039;-69
2021/08/04 06:10:03;;;;;;;5.43;1.67;;;;;;;21.92;48.06;99331.91;5107357;28;20407;-70
2021/08/04 06:12:32;;;;;;;6.80;1.90;;;;;;;22.04;47.65;99342.69;5098660;28;20043;-70
2021/08/04 06:14:58;;;;;;;6.88;2.22;;;;;;;22.09;48.09;99345.50;5097067;28;20492;-70
2021/08/04 06:17:24;;;;;;;5.70;2.38;;;;;;;22.15;48.00;99342.69;5079785;28;20507;-70
2021/08/04 06:19:50;;;;;;;7.97;2.08;;;;;;;22.19;47.93;99348.44;5078178;28;20054;-70
2021/08/04 06:22:16;;;;;;;12.70;2.05;;;;;;;22.26;47.93;99344.53;5072428;28;20056;-70
2021/08/04 06:24:41;;;;;;;9.65;2.53;;;;;;;22.40;48.30;99342.34;5071834;28;20091;-73
2021/08/04 06:27:08;;;;;;;11.02;2.40;;;;;;;22.53;48.34;99350.22;5079626;28;20415;-70
2021/08/04 06:29:34;;;;;;;7.43;2.10;;;;;;;22.59;47.91;99343.81;5078341;28;20040;-70
2021/08/04 06:32:00;;;;;;;8.48;2.63;;;;;;;22.64;48.39;99341.22;5078474;28;20396;-70
2021/08/04 06:34:26;;;;;;;8.45;2.45;;;;;;;22.86;48.25;99353.00;5059745;28;20036;-69
2021/08/04 06:36:52;;;;;;;10.07;2.38;;;;;;;22.99;47.06;99355.38;5052989;28;20854;-69
2021/08/04 06:39:18;;;;;;;7.60;2.22;;;;;;;23.08;46.71;99352.03;5068922;28;20040;-69
2021/08/04 06:41:44;;;;;;;8.63;2.30;;;;;;;23.22;46.50;99349.81;5068777;28;20051;-69
2021/08/04 06:44:10;;;;;;;9.20;2.58;;;;;;;23.50;46.46;99351.66;5035397;28;20036;-69
2021/08/04 06:46:37;;;;;;;9.50;2.55;;;;;;;23.56;45.94;99339.81;5068765;28;20074;-69
2021/08/04 06:49:04;;;;;;;4.68;2.22;;;;;;;23.83;46.10;99351.59;5085488;28;20412;-73
2021/08/04 06:51:31;;;;;;;7.18;2.33;;;;;;;24.12;45.65;99350.41;5069072;28;20500;-70
2021/08/04 06:53:57;;;;;;;9.00;4.45;;;;;;;24.46;45.63;99351.91;5068593;28;20044;-70
2021/08/04 06:56:23;;;;;;;8.82;2.58;;;;;;;24.75;45.62;99358.78;5090401;28;20040;-73
2021/08/04 06:58:49;;;;;;;6.60;2.20;;;;;;;24.86;43.34;99352.38;5061173;28;20036;-71
2021/08/04 07:01:15;;;;;;;3.80;1.75;;;;;;;24.77;41.05;99356.63;5085709;28;20119;-71
2021/08/04 07:03:41;;;;;;;4.82;1.58;;;;;;;24.82;40.74;99348.50;5075506;28;20036;-69
2021/08/04 07:06:08;;;;;;;2.67;1.40;;;;;;;24.89;40.04;99357.28;5096030;28;20480;-69
2021/08/04 07:08:38;;;;;;;4.75;2.00;;;;;;;24.94;40.53;99351.06;5061121;28;20127;-69
2021/08/04 07:11:05;;;;;;;3.50;1.48;;;;;;;24.99;39.92;99357.38;5061485;28;20134;-70
2021/08/04 07:13:31;;;;;;;8.60;1.50;;;;;;;24.92;40.45;99354.84;5067520;28;20039;-69
2021/08/04 07:15:57;;;;;;;4.03;1.23;;;;;;;24.91;39.70;99340.72;5055750;28;20080;-69
2021/08/04 07:18:23;;;;;;;4.85;1.88;;;;;;;25.49;40.09;99362.44;5021528;28;20067;-70
2021/08/04 07:20:49;;;;;;;3.72;1.40;;;;;;;26.38;37.18;99356.72;5054824;28;20044;-68
2021/08/04 07:23:16;;;;;;;4.03;1.40;;;;;;;27.65;34.55;99355.81;5037822;28;20078;-69
2021/08/04 07:25:42;;;;;;;4.65;1.13;;;;;;;28.90;31.98;99333.50;5054672;28;20134;-70
2021/08/04 07:28:08;;;;;;;4.50;1.60;;;;;;;30.28;29.55;99349.19;5054960;28;20140;-69
2021/08/04 07:30:34;;;;;;;3.42;1.30;;;;;;;31.65;27.46;99366.06;5038009;28;20139;-69
2021/08/04 07:33:00;;;;;;;3.00;1.10;;;;;;;33.03;24.88;99361.94;5038148;28;20129;-70
2021/08/04 07:35:26;;;;;;;1.85;1.15;;;;;;;34.67;22.66;99366.06;5054145;28;20055;-70
2021/08/04 07:37:52;;;;;;;4.05;1.17;;;;;;;36.46;20.11;99361.09;5021218;28;20404;-70
2021/08/04 07:40:19;;;;;;;4.70;1.00;;;;;;;38.37;17.91;99359.47;5054340;28;20075;-70
2021/08/04 07:42:47;;;;;;;2.80;1.10;;;;;;;37.64;18.21;99359.69;5058654;28;20101;-70
2021/08/04 07:45:14;;;;;;;6.95;1.00;;;;;;;35.72;19.67;99374.53;5045390;28;20036;-70
2021/08/04 07:47:40;;;;;;;4.80;1.05;;;;;;;33.71;21.87;99343.13;5062709;28;20054;-69
2021/08/04 07:50:07;;;;;;;3.45;1.42;;;;;;;34.03;21.17;99351.91;5076711;28;20165;-69
2021/08/04 07:52:33;;;;;;;2.15;1.10;;;;;;;36.00;19.71;99344.53;5081288;28;20048;-69
2021/08/04 07:54:59;;;;;;;5.65;1.45;;;;;;;38.64;17.11;99344.91;5056332;28;20043;-69
2021/08/04 07:57:25;;;;;;;4.75;0.82;;;;;;;39.94;15.34;99343.13;5074106;28;20039;-72
2021/08/04 07:59:51;;;;;;;1.83;0.98;;;;;;;39.41;15.43;99345.59;5054433;28;20377;-69
2021/08/04 08:02:17;;;;;;;2.42;1.00;;;;;;;37.06;17.23;99324.69;5030508;28;20060;-69
2021/08/04 08:04:43;;;;;;;2.53;1.02;;;;;;;37.48;17.08;99337.34;5061484;28;20040;-69
2021/08/04 08:07:09;;;;;;;5.20;1.10;;;;;;;36.39;16.95;99335.91;5046225;28;20127;-68
2021/08/04 08:09:35;;;;;;;9.07;1.52;;;;;;;36.67;17.08;99341.75;5063065;28;20128;-68
2021/08/04 08:12:01;;;;;;;3.53;1.33;;;;;;;38.44;15.46;99343.03;5036582;28;20063;-69
2021/08/04 08:14:28;;;;;;;8.60;1.65;;;;;;;40.50;13.97;99331.78;5063276;28;20123;-70
2021/08/04 08:16:55;;;;;;;8.45;1.60;;;;;;;40.81;13.38;99329.72;5080842;28;20543;-70
2021/08/04 08:19:22;;;;;;;12.43;2.00;;;;;;;39.48;14.35;99334.72;5060898;28;20070;-69
2021/08/04 08:21:48;;;;;;;4.95;1.50;;;;;;;38.68;14.76;99329.19;5062524;28;20039;-69
2021/08/04 08:24:14;;;;;;;5.82;1.45;;;;;;;37.16;15.79;99336.19;5069661;28;20557;-69
2021/08/04 08:26:41;;;;;;;11.30;1.95;;;;;;;38.52;15.69;99331.00;5078406;28;20063;-69
2021/08/04 08:29:07;;;;;;;3.67;1.50;;;;;;;40.30;14.50;99328.16;5045753;28;20823;-69
2021/08/04 08:31:35;;;;;;;1.98;1.08;;;;;;;41.84;12.91;99333.44;5054126;28;20036;-69
2021/08/04 08:34:02;;;;;;;4.63;1.30;;;;;;;42.68;12.22;99337.63;5047202;28;20050;-69
2021/08/04 08:36:29;;;;;;;2.97;1.13;;;;;;;42.91;11.38;99315.19;5061185;28;20042;-70
2021/08/04 08:38:56;;;;;;;7.88;1.40;;;;;;;41.44;12.57;99317.13;5046190;28;20044;-69
2021/08/04 08:41:21;;;;;;;3.67;1.35;;;;;;;39.37;14.36;99328.00;5027106;28;20040;-69
2021/08/04 08:43:48;;;;;;;2.40;1.30;;;;;;;37.21;16.67;99315.81;5045818;28;20569;-69
2021/08/04 08:46:14;;;;;;;4.50;1.58;;;;;;;35.57;18.67;99330.84;5061682;28;20451;-69
2021/08/04 08:48:49;;;;;;;2.45;1.15;;;;;;;34.07;20.61;99321.78;5043352;28;20037;-69
2021/08/04 08:51:17;;;;;;;6.20;1.45;;;;;;;32.79;22.30;99309.06;5047291;28;20051;-69
2021/08/04 08:53:43;;;;;;;6.78;1.45;;;;;;;31.94;23.75;99329.03;5035932;28;20044;-71
2021/08/04 08:56:10;;;;;;;5.85;2.03;;;;;;;31.17;24.38;99337.25;5036891;28;20041;-69
2021/08/04 08:58:35;;;;;;;3.47;1.60;;;;;;;30.58;25.68;99335.91;5061605;28;20044;-69
2021/08/04 09:01:01;;;;;;;5.60;1.50;;;;;;;29.88;26.86;99316.75;5070443;28;20052;-70
2021/08/04 09:03:27;;;;;;;4.18;1.98;;;;;;;29.40;28.07;99332.28;5035728;28;20083;-69
2021/08/04 09:05:58;;;;;;;5.85;1.55;;;;;;;28.60;29.40;99330.13;5054102;28;20069;-70
2021/08/04 09:08:27;;;;;;;5.43;1.35;;;;;;;28.17;30.23;99339.06;5078332;28;20043;-70
2021/08/04 09:10:54;;;;;;;4.40;1.58;;;;;;;27.85;30.71;99334.75;5052618;28;20052;-69
2021/08/04 09:13:32;;;;;;;3.13;1.40;;;;;;;27.69;31.49;99340.53;5088222;28;20040;-70
2021/08/04 09:16:08;;;;;;;4.07;1.50;;;;;;;27.52;32.41;99340.00;5062457;28;20045;-70
2021/08/04 09:18:39;;;;;;;7.20;1.60;;;;;;;27.39;32.26;99337.81;5028585;28;20076;-69
2021/08/04 09:21:05;;;;;;;3.00;1.55;;;;;;;27.29;32.18;99337.84;5045340;28;20062;-68
2021/08/04 09:23:30;;;;;;;2.58;1.42;;;;;;;27.24;32.22;99335.09;5069542;28;20068;-70
2021/08/04 09:26:14;;;;;;;5.25;1.52;;;;;;;27.36;31.95;99327.47;5056079;28;20131;-68
2021/08/04 09:29:01;;;;;;;6.32;1.70;;;;;;;27.92;31.10;99339.97;5052777;28;20031;-68
2021/08/04 09:31:51;;;;;;;4.05;1.50;;;;;;;30.23;27.76;99327.34;5049516;28;20104;-69
2021/08/04 09:34:34;;;;;;;2.70;1.40;;;;;;;31.75;24.99;99322.78;5043618;28;20082;-70
2021/08/04 09:37:11;;;;;;;4.60;1.30;;;;;;;31.87;24.67;99330.53;5080046;28;20044;-69
2021/08/04 09:39:39;;;;;;;4.97;1.30;;;;;;;31.21;24.25;99336.34;5036244;28;20055;-69
2021/08/04 09:42:06;;;;;;;1.52;1.30;;;;;;;30.80;24.63;99338.06;5043056;28;20508;-69
2021/08/04 09:44:33;;;;;;;5.00;1.45;;;;;;;30.78;24.53;99329.34;5046302;28;20118;-70
2021/08/04 09:47:13;;;;;;;2.15;1.20;;;;;;;30.76;24.91;99334.31;5038952;28;20518;-70
2021/08/04 09:49:41;;;;;;;6.80;1.85;;;;;;;29.97;25.94;99306.81;5038842;28;20036;-69
2021/08/04 09:52:11;;;;;;;7.35;1.63;;;;;;;29.45;27.65;99324.84;5072229;28;20044;-69
2021/08/04 09:54:39;;;;;;;3.05;1.63;;;;;;;29.19;28.42;99326.19;5055183;28;20052;-69
2021/08/04 09:57:06;;;;;;;3.88;1.80;;;;;;;28.89;29.22;99320.91;5038592;28;20142;-69
2021/08/04 09:59:32;;;;;;;5.03;2.30;;;;;;;28.10;30.11;99320.22;5072372;28;20075;-69
2021/08/04 10:01:59;;;;;;;5.38;2.00;;;;;;;28.10;30.10;99325.69;5038504;28;20581;-69
2021/08/04 10:04:26;;;;;;;4.50;1.25;;;;;;;28.25;29.23;99319.38;5039311;28;20144;-68
2021/08/04 10:07:05;;;;;;;7.05;1.90;;;;;;;28.55;29.13;99297.38;5078763;28;20499;-69
2021/08/04 10:09:32;;;;;;;2.35;1.42;;;;;;;29.36;27.99;99323.03;5046481;28;20032;-69
2021/08/04 10:11:58;;;;;;;2.40;1.48;;;;;;;29.06;28.49;99328.75;5043885;28;20036;-69
2021/08/04 10:14:24;;;;;;;5.25;1.40;;;;;;;28.77;28.94;99319.66;5036922;28;20039;-69
2021/08/04 10:16:51;;;;;;;3.17;1.42;;;;;;;28.43;30.05;99314.06;5010392;28;20028;-69
2021/08/04 10:19:18;;;;;;;3.30;1.60;;;;;;;27.75;30.20;99315.66;5078395;28;20044;-70
2021/08/04 10:21:47;;;;;;;4.03;1.40;;;;;;;27.64;30.73;99313.25;5060735;28;20036;-69
2021/08/04 10:24:13;;;;;;;3.65;1.33;;;;;;;27.58;30.80;99314.34;5034320;28;20036;-70
2021/08/04 10:26:40;;;;;;;8.40;1.88;;;;;;;27.19;31.73;99319.53;5051492;28;20051;-69
2021/08/04 10:29:07;;;;;;;3.25;1.80;;;;;;;26.55;33.15;99322.97;5069646;28;20060;-74
2021/08/04 10:31:33;;;;;;;14.90;2.22;;;;;;;25.82;36.40;99316.69;5052412;28;20055;-70
2021/08/04 10:33:59;;;;;;;4.20;2.17;;;;;;;25.18;39.30;99322.47;5068386;28;20052;-70
2021/08/04 10:36:34;;;;;;;3.55;1.73;;;;;;;24.62;40.30;99329.25;5069309;28;20090;-69
2021/08/04 10:39:08;;;;;;;6.80;1.70;;;;;;;23.86;41.29;99321.28;5061895;28;20051;-69
2021/08/04 10:41:34;;;;;;;4.00;1.40;;;;;;;23.45;41.95;99310.94;5018909;28;20113;-68
2021/08/04 10:44:20;;;;;;;10.25;1.50;;;;;;;23.16;42.64;99324.53;5088142;28;20063;-68
2021/08/04 10:46:46;;;;;;;7.43;1.55;;;;;;;22.96;42.89;99315.25;5054989;28;20040;-69
2021/08/04 10:49:13;;;;;;;10.13;1.45;;;;;;;23.01;42.92;99318.88;5041742;28;20121;-68
2021/08/04 10:52:04;;;;;;;7.78;1.40;;;;;;;23.17;43.41;99317.25;5075663;28;20097;-69
2021/08/04 10:54:32;;;;;;;5.68;1.50;;;;;;;23.41;42.51;99323.31;5026780;28;20405;-69
2021/08/04 10:57:01;;;;;;;5.72;1.80;;;;;;;23.46;42.41;99326.94;5038724;28;20066;-69
2021/08/04 10:59:27;;;;;;;5.10;1.98;;;;;;;23.86;42.20;99321.28;5022276;28;20075;-69
2021/08/04 11:02:14;;;;;;;2.22;1.50;;;;;;;24.33;41.13;99311.56;5038274;28;20064;-69
2021/08/04 11:04:43;;;;;;;6.43;1.80;;;;;;;25.14;39.63;99324.09;5077817;28;20086;-70
2021/08/04 11:07:19;;;;;;;6.00;1.70;;;;;;;25.46;38.96;99323.00;5064142;28;20483;-69
2021/08/04 11:09:48;;;;;;;2.55;1.67;;;;;;;25.67;37.80;99313.06;5067513;28;20074;-70
2021/08/04 11:12:40;;;;;;;6.55;1.70;;;;;;;25.95;37.16;99320.84;5072488;28;20044;-69
2021/08/04 11:15:22;;;;;;;7.03;1.90;;;;;;;26.23;34.87;99325.91;5019504;28;20168;-69
2021/08/04 11:18:13;;;;;;;3.83;1.75;;;;;;;26.46;35.70;99319.97;5063706;28;20052;-69
2021/08/04 11:21:08;;;;;;;6.50;2.03;;;;;;;26.61;36.74;99321.91;5048488;28;20040;-69
2021/08/04 11:23:48;;;;;;;6.07;1.75;;;;;;;27.07;34.86;99319.00;5045537;28;20049;-68
2021/08/04 11:26:36;;;;;;;10.07;1.97;;;;;;;27.40;33.90;99296.63;5045820;28;20131;-69
2021/08/04 11:29:04;;;;;;;7.90;1.58;;;;;;;27.84;32.18;99310.47;5048264;28;20044;-68
2021/08/04 11:31:30;;;;;;;8.45;1.70;;;;;;;28.05;31.84;99316.72;5062271;28;20519;-70
2021/08/04 11:34:00;;;;;;;3.95;1.52;;;;;;;28.35;31.15;99313.84;5055581;28;20040;-70
2021/08/04 11:36:30;;;;;;;5.00;1.58;;;;;;;28.34;30.31;99307.56;5046988;28;20052;-69
2021/08/04 11:39:01;;;;;;;4.47;1.55;;;;;;;28.38;30.33;99297.72;5014839;28;20094;-69
2021/08/04 11:41:28;;;;;;;4.30;1.65;;;;;;;28.57;30.83;99304.16;5062593;28;20603;-70
2021/08/04 11:44:00;;;;;;;5.43;1.65;;;;;;;28.63;29.87;99316.69;5088933;28;20231;-70